Nearby METAR Reports

 

KBJC - Broomfield/Jeffc, Colorado, USA
Distance from station: NNW 11mi, 17km
Updated: 05/25/2018 11:45am
Few Clouds
Few Clouds
 Wind from ESE
Wind: ESE 3 mph , 6 km/h
Temperature: 82°F , 28°C
Dew Point: 30°F , -1°C
Humidity: 15%
Barometer: 30.11 inHg , 1019.6 hPa
Clouds: Few Clouds
Visibility: 50 miles , 80 km
Cloud details: Few Clouds 1000 ft
2018/05/25 17:45 KBJC 251745Z 11003KT 50SM FEW010 28/M01 A3011
KBKF - Buckley Angb/Den, Colorado, USA
Distance from station: E 16mi, 25km
Updated: 05/25/2018 11:58am
Few Clouds
Few Clouds
 Wind from S
Wind: S 7 mph , 11 km/h
Temperature: 82°F , 28°C
Dew Point: 28°F , -2°C
Humidity: 14%
Barometer: 30.11 inHg , 1019.6 hPa
Clouds: Few Clouds
Visibility: 10 miles , 16 km
Cloud details: Few Clouds 9000 ft
2018/05/25 17:58 KBKF 251758Z 18006KT 10SM FEW090 28/M02 A3011 RMK AO2A SLP122 T02791021 10279 20115 57008
 
KAPA - Denver/Arapahoe, Colorado, USA
Distance from station: SE 16mi, 26km
Updated: 05/25/2018 11:53am
Few Clouds
Few Clouds
 Wind from NNW
Wind: NNW 6 mph , 9 km/h
Temperature: 82°F , 28°C
Dew Point: 30°F , -1°C
Humidity: 15%
Barometer: 30.12 inHg , 1020 hPa
Clouds: Few Clouds
Visibility: 10 miles , 16 km
Cloud details: Few Clouds 10000 ft
Few Clouds 20000 ft
2018/05/25 17:53 KAPA 251753Z 34005KT 10SM FEW100 FEW200 28/M01 A3012 RMK AO2 SLP132 T02781011 10283 20111 58009
KEIK - Erie Muni, Colorado, USA
Distance from station: N 18mi, 29km
Updated: 05/25/2018 11:53am
Clear
Clear
 Wind from E
Wind: E 7 mph , 11 km/h
Temperature: 82°F , 28°C
Dew Point: 34°F , 1°C
Humidity: 17%
Barometer: 30.12 inHg , 1020 hPa
Clouds: Clear
Visibility: 10 miles , 16 km
2018/05/25 17:53 KEIK 251753Z AUTO 10006KT 10SM CLR 28/01 A3012 RMK AO2 T02810011
 
KBDU - Boulder Muni, Colorado, USA
Distance from station: NNW 22mi, 35km
Updated: 05/25/2018 11:53am
Clear
Clear
 Wind from calm
Wind: Calm
Temperature: 77°F , 25°C
Dew Point: 46°F , 8°C
Humidity: 34%
Barometer: 30.08 inHg , 1018.6 hPa
Clouds: Clear
Visibility: 10 miles , 16 km
2018/05/25 17:53 KBDU 251753Z AUTO 00000KT 10SM CLR 25/08 A3008 RMK AO2
KDEN - Denver (dia), Colorado, USA
Distance from station: ENE 22mi, 35km
Updated: 05/25/2018 11:53am
Few Clouds
Few Clouds
 Wind from WSW
Wind: WSW 6 mph , 9 km/h
Temperature: 82°F , 28°C
Dew Point: 32°F , 0°C
Humidity: 16%
Barometer: 30.09 inHg , 1019 hPa
Clouds: Few Clouds
Visibility: 10 miles , 16 km
Cloud details: Few Clouds 10000 ft
2018/05/25 17:53 KDEN 251753Z 24005KT 10SM FEW100 28/00 A3009 RMK AO2 SLP111 T02830000 10289 20144 58009
 
KFTG - Denver F. Range, Colorado, USA
Distance from station: E 26mi, 42km
Updated: 05/25/2018 11:50am
Few Clouds
Few Clouds
 Wind from calm
Wind: Calm
Temperature: 84°F , 29°C
Dew Point: 27°F , -3°C
Humidity: 12%
Barometer: 30.11 inHg , 1019.6 hPa
Clouds: Few Clouds
Visibility: 10 miles , 16 km
Cloud details: Few Clouds 12000 ft
2018/05/25 17:50 KFTG 251750Z 00000KT 10SM FEW120 29/M03 A3011
KLMO - Longmont/Vbrand, Colorado, USA
Distance from station: NNW 29mi, 47km
Updated: 12/31/1969 5:00pm
NOT Current
unable to load KLMO data RC=404 Not Found
unable to load KLMO data RC=404 Not Found
 
 
K0CO - Berthoud Pass, Colorado, USA
Distance from station: W 39mi, 62km
Updated: 05/25/2018 11:54am
Partly cloudy
Partly cloudy
 Wind from W
Wind: W 10 mph , 17 km/h, Gust: 18 mph , 30 km/h
Temperature: 48°F , 9°C
Wind Chill: 44°F , 7°C
Dew Point: 37°F , 3°C
Humidity: 66%
Barometer: 30.59 inHg , 1035.9 hPa
Clouds: Partly cloudy
Visibility: 10 miles , 16 km
Cloud details: Partly cloudy 7500 ft
2018/05/25 17:54 K0CO 251754Z AUTO 26009G16KT 10SM SCT075 09/03 A3059 RMK AO2
KMNH - Monument/Elbert, Colorado, USA
Distance from station: SSE 43mi, 68km
Updated: 05/25/2018 11:52am
Clear
Clear
 Wind from E
Wind: E 3 mph , 6 km/h
Temperature: 75°F , 24°C
Dew Point: 25°F , -4°C
Humidity: 15%
Barometer: 30.22 inHg , 1023.4 hPa
Clouds: Clear
Visibility: 10 miles , 16 km
2018/05/25 17:52 KMNH 251752Z AUTO 09003KT 10SM CLR 24/M04 A3022 RMK AO2
 
KFNL - Ft Collins/Lovel, Colorado, USA
Distance from station: N 48mi, 78km
Updated: 05/25/2018 11:56am
Clear
Clear
 Wind from varies
Wind: varies 6 mph , 9 km/h
Temperature: 81°F , 27°C
Dew Point: 48°F , 9°C
Humidity: 32%
Barometer: 30.07 inHg , 1018.3 hPa
Clouds: Clear
Visibility: 10 miles , 16 km
2018/05/25 17:56 KFNL 251756Z AUTO VRB05KT 10SM CLR 27/09 A3007 RMK AO2 SLP124 T02670089 10267 20117 58010